Terminal Aerodrome Forecast
Issued by NWS Springfield, MO

Home | Current Version | Previous Version | Text Only | Print | Product List | Glossary On
Versions: 1 2 3 4 5 6 7 8 9 10 11 12 13 14 15 16 17 18 19
000
FTUS43 KSGF 252300 RRA
TAFSGF
TAF
KSGF 252337Z 2600/2624 23004KT P6SM BKN150
     FM260300 27005KT P6SM SCT050 OVC100
     FM260600 32014G24KT P6SM SCT010 OVC040
     FM260900 34017G27KT P6SM OVC010
      TEMPO 2609/2613 3SM -SN BR
     FM261300 35017G27KT P6SM OVC015
     FM262000 35012G18KT P6SM BKN020=

USA.gov is the U.S. government's official web portal to all federal, state and local government web resources and services.